메인 페이지
METAR-TAF:

METAR-TAF

공항 :

Lancaster Airport

랭커스터, 텍사스, 미국

위도: 32-34-45N, 경도: 096-43-08W, 고도: 153m

현재 날씨관측

예보는 11분 전, 20:35시(UTC)에 발표되었습니다.
6kt
온도 12°C
습도 47%
기압 1022 hPa
시정: 16.1km
맑음

METAR: KLNC 192035Z AUTO 01006KT 10SM CLR 12/01 A3018 RMK AO2 T01220007

시각: 14:46 (20:46 UTC)


TAF: 누락

4,000개 이상의 공항 관측 자료 및 예보 (METAR 및 TAF 보고).

지도상에서 검색 가능한 기상관측소가 노란 점과 빨간 점으로 표시되어 있습니다.

기상관측소 명을 보려면 표시 위로 마우스를 이동하세요.

날씨 관측과 예보를 보려면 클릭하세요.

지도 변경 : 확대하려면 엑스 표시가 있는 녹색 버튼, 축소하려면 빼기 표시가 있는 녹색 버튼, 다음 페이지의 지도를 보려면 녹색 화살표를 클릭하세요.


METAR-TAF: